首页
METAR-TAF:

METAR-TAF

机场 :

舍布魯克, 魁北克, 加拿大

纬度: 45-24N, 经度: 071-53W, 海拔: 170米

当前天气观测

该预报发布于49分钟前的11:00 UTC
静风
温度 23°C
湿度 89%
气压 1024 hPa
能見度: 14.5公里
少量云层高于25000英尺

METAR: CYSC 191100Z AUTO 00000KT 9SM FEW250 23/21 A3025 RMK SLP244 DENSITY ALT 1500FT

时间: 07:49 (11:49 UTC)

预报

该预报发布于1小时和9分钟前的10:40 UTC
预报有效从19日的 11点(UTC)到 19日的 23点(UTC)
风速3节,风向多变
能見度: 10公里
天空无云
短暂存在
从 19日的 11点(UTC)到 19日的 12点(UTC)
能見度: 4.8公里
轻雾
从 19日的 1500点(UTC)
风速10节,风向西转西南
能見度: 10公里
散云层高于4000英尺
短暂存在
从 19日的 15点(UTC)到 19日的 23点(UTC)
能見度: 6.4公里
多云层高于4000英尺
阵雨, 轻雾
几率 30%
从 19日的 15点(UTC)到 19日的 20点(UTC)
能見度: 3.2公里
阴天层高于3000英尺, 积雨云.
雷暴, 雨, 轻雾

TAF: CYSC 191040Z 1911/1923 VRB03KT P6SM SKC TEMPO 1911/1912 3SM BR FM191500 25010KT P6SM SCT040 TEMPO 1915/1923 4SM SHRA BR BKN040 PROB30 1915/1920 2SM TSRA BR OVC030CB RMK FCST BASED ON AUTO OBS. NXT FCST BY 191800Z

超过4000个机场的气象观测和天气预报(METAR&TAF报告)。

可查询的气象台以黄色和红色小点在地图上表示。

将鼠标移到小点上方,可查看气象台名称。

然后点击查看天气观测和预报。

如需切换地图:点击带黑十字的绿色按钮放大地图;点击带横线的绿色按钮缩小地图;或者点击绿色箭头查看邻近地区的地图。


METAR-TAF: